Terminal Aerodrome Forecast
Issued by NWS

Home | Current Version | Previous Version | Graphics & Text | Print | Product List | Glossary On
Versions: 1 2 3 4 5 6 7 8 9 10 11 12 13 14 15 16 17
602
FTUS43 KICT 122320
TAFRSL
TAF
KRSL 122320Z 1300/1324 05010KT P6SM OVC020
     FM130800 10010KT P6SM BKN020
     FM131600 14014KT P6SM BKN020
     FM132100 16016G24KT P6SM BKN025
     FM132200 16015G23KT P6SM SCT025=

USA.gov is the U.S. government's official web portal to all federal, state and local government web resources and services.